createdAt,value
2022-11-26T00:00:14.743Z,97749.16
2022-11-26T00:02:44.372Z,97752.78
2022-11-26T00:05:13.950Z,97756.34
2022-11-26T00:07:42.476Z,97755.47
2022-11-26T00:10:19.856Z,97766.22
2022-11-26T00:12:48.251Z,97769.78
2022-11-26T00:15:18.025Z,97775.16
2022-11-26T00:17:47.592Z,97777.84
2022-11-26T00:20:16.096Z,97777.84
2022-11-26T00:22:45.401Z,97780.63
2022-11-26T00:25:18.956Z,97788.59
2022-11-26T00:27:47.085Z,97784.19
2022-11-26T00:30:19.634Z,97794.06
2022-11-26T00:32:49.316Z,97788.69
2022-11-26T00:35:17.653Z,97786.00
2022-11-26T00:37:47.373Z,97797.63
2022-11-26T00:40:20.814Z,97799.44
2022-11-26T00:42:49.208Z,97795.00
2022-11-26T00:45:18.985Z,97796.75
2022-11-26T00:47:48.688Z,97793.28
2022-11-26T00:50:18.952Z,97802.13
2022-11-26T00:52:50.945Z,97803.06
2022-11-26T00:55:28.817Z,97821.88
2022-11-26T00:57:57.231Z,97813.91
2022-11-26T01:00:26.484Z,97810.28
2022-11-26T01:02:56.336Z,97809.41
2022-11-26T01:05:26.057Z,97805.84
2022-11-26T01:07:54.609Z,97809.41
2022-11-26T01:10:25.292Z,97815.72
2022-11-26T01:12:53.749Z,97813.91
2022-11-26T01:15:23.908Z,97807.66
2022-11-26T01:17:52.735Z,97808.53
2022-11-26T01:20:25.624Z,97806.81
2022-11-26T01:22:54.477Z,97813.03
2022-11-26T01:25:22.729Z,97811.22
2022-11-26T01:27:51.000Z,97819.38
2022-11-26T01:30:21.302Z,97819.38
2022-11-26T01:32:49.873Z,97822.94
2022-11-26T01:35:18.443Z,97826.56
2022-11-26T01:37:48.104Z,97822.06
2022-11-26T01:40:34.210Z,97825.72
2022-11-26T01:43:05.633Z,97829.28
2022-11-26T01:45:34.031Z,97828.41
2022-11-26T01:48:02.342Z,97832.81
2022-11-26T01:51:04.768Z,97826.69
2022-11-26T01:53:38.962Z,97828.41
2022-11-26T01:56:11.942Z,97827.56
2022-11-26T01:58:41.856Z,97832.06
2022-11-26T02:01:10.084Z,97838.31
2022-11-26T02:03:41.193Z,97847.31
2022-11-26T02:06:12.049Z,97867.94
2022-11-26T02:08:41.548Z,97855.38
2022-11-26T02:11:17.640Z,97849.13
2022-11-26T02:13:47.491Z,97858.16
2022-11-26T02:16:20.634Z,97849.13
2022-11-26T02:18:54.236Z,97859.03
2022-11-26T02:21:23.869Z,97861.72
2022-11-26T02:24:11.444Z,97861.72
2022-11-26T02:27:11.564Z,97862.66
2022-11-26T02:29:50.089Z,97865.34
2022-11-26T02:32:19.315Z,97849.22
2022-11-26T02:34:49.224Z,97859.09
2022-11-26T02:37:19.853Z,97864.47
2022-11-26T02:39:48.163Z,97864.47
2022-11-26T02:42:25.236Z,97867.16
2022-11-26T02:44:55.202Z,97871.69
2022-11-26T02:47:23.443Z,97883.28
2022-11-26T02:49:51.721Z,97880.59
2022-11-26T02:52:19.957Z,97892.31
2022-11-26T02:54:48.233Z,97889.63
2022-11-26T02:57:16.953Z,97889.63
2022-11-26T02:59:45.301Z,97884.25
2022-11-26T03:02:16.200Z,97895.00
2022-11-26T03:04:47.017Z,97895.00
2022-11-26T03:07:15.520Z,97897.69
2022-11-26T03:09:49.863Z,97892.31
2022-11-26T03:12:18.204Z,97888.84
2022-11-26T03:14:46.722Z,97891.53
2022-11-26T03:17:16.392Z,97887.88
2022-11-26T03:19:44.948Z,97898.63
2022-11-26T03:22:13.171Z,97895.94
2022-11-26T03:24:41.632Z,97891.53
2022-11-26T03:27:09.829Z,97896.03
2022-11-26T03:29:38.220Z,97896.91
2022-11-26T03:32:07.223Z,97901.41
2022-11-26T03:34:37.267Z,97905.84
2022-11-26T03:37:05.721Z,97898.72
2022-11-26T03:39:34.097Z,97906.78
2022-11-26T03:42:02.383Z,97908.59
2022-11-26T03:44:30.590Z,97906.78
2022-11-26T03:46:59.037Z,97908.59
2022-11-26T03:49:27.401Z,97914.84
2022-11-26T03:51:57.329Z,97911.38
2022-11-26T03:54:25.688Z,97914.94
2022-11-26T03:56:53.900Z,97919.34
2022-11-26T03:59:22.238Z,97927.50
2022-11-26T04:01:50.771Z,97923.00
2022-11-26T04:04:19.072Z,97932.88
2022-11-26T04:06:47.398Z,97933.75
2022-11-26T04:09:17.153Z,97923.94
2022-11-26T04:11:48.409Z,97933.84
2022-11-26T04:14:16.696Z,97917.72
2022-11-26T04:16:45.015Z,97936.53
2022-11-26T04:19:13.302Z,97939.22
2022-11-26T04:21:41.495Z,97937.47
2022-11-26T04:24:09.965Z,97953.50
2022-11-26T04:26:39.584Z,97956.28
2022-11-26T04:29:07.916Z,97932.09
2022-11-26T04:31:36.385Z,97945.44
2022-11-26T04:34:04.722Z,97962.63
2022-11-26T04:36:32.936Z,97943.81
2022-11-26T04:39:01.447Z,97955.41
2022-11-26T04:41:29.641Z,97944.66
2022-11-26T04:43:59.448Z,97954.56
2022-11-26T04:46:28.037Z,97963.47
2022-11-26T04:48:56.250Z,97960.78
2022-11-26T04:51:24.552Z,97959.06
2022-11-26T04:53:55.767Z,97973.38
2022-11-26T04:56:24.635Z,97975.19
2022-11-26T04:58:52.932Z,97977.00
2022-11-26T05:01:22.897Z,97963.56
2022-11-26T05:03:53.036Z,97968.94
2022-11-26T05:06:21.588Z,97986.88
2022-11-26T05:08:49.895Z,97986.88
2022-11-26T05:11:18.079Z,97986.03
2022-11-26T05:13:46.323Z,97989.56
2022-11-26T05:16:14.698Z,97986.88
2022-11-26T05:18:44.667Z,97994.09
2022-11-26T05:21:13.292Z,97994.94
2022-11-26T05:23:41.572Z,98001.28
2022-11-26T05:26:09.785Z,97998.59
2022-11-26T05:28:38.084Z,98017.38
2022-11-26T05:31:06.805Z,98010.22
2022-11-26T05:33:35.114Z,98018.31
2022-11-26T05:36:05.168Z,98013.81
2022-11-26T05:38:33.458Z,98003.94
2022-11-26T05:41:01.694Z,98030.81
2022-11-26T05:43:29.920Z,98019.19
2022-11-26T05:45:58.238Z,98018.31
2022-11-26T05:48:26.463Z,98041.66
2022-11-26T05:50:58.838Z,98031.75
2022-11-26T05:53:28.756Z,98036.28
2022-11-26T05:55:57.032Z,98029.06
2022-11-26T05:58:25.299Z,98026.38
2022-11-26T06:00:53.598Z,98032.72
2022-11-26T06:03:21.955Z,98033.59
2022-11-26T06:05:50.619Z,98038.97
2022-11-26T06:08:18.865Z,98030.91
2022-11-26T06:10:48.668Z,98040.78
2022-11-26T06:13:17.419Z,98034.53
2022-11-26T06:15:45.649Z,98042.59
2022-11-26T06:18:13.924Z,98036.34
2022-11-26T06:20:42.194Z,98056.91
2022-11-26T06:23:10.345Z,98062.28
2022-11-26T06:25:40.615Z,98059.59
2022-11-26T06:28:10.147Z,98060.63
2022-11-26T06:30:38.373Z,98068.69
2022-11-26T06:33:06.774Z,98074.94
2022-11-26T06:35:35.116Z,98077.63
2022-11-26T06:38:03.190Z,98080.31
2022-11-26T06:40:31.421Z,98086.56
2022-11-26T06:42:59.497Z,98090.09
2022-11-26T06:45:29.066Z,98090.09
2022-11-26T06:47:57.217Z,98099.03
2022-11-26T06:50:25.672Z,98103.53
2022-11-26T06:52:53.872Z,98116.03
2022-11-26T06:55:22.200Z,98120.44
2022-11-26T06:57:51.144Z,98109.78
2022-11-26T07:00:19.904Z,98122.28
2022-11-26T07:02:49.407Z,98130.34
2022-11-26T07:05:17.596Z,98133.94
2022-11-26T07:07:45.855Z,98132.16
2022-11-26T07:10:14.168Z,98139.25
2022-11-26T07:12:42.243Z,98150.00
2022-11-26T07:15:12.201Z,98150.00
2022-11-26T07:17:40.369Z,98153.56
2022-11-26T07:20:10.585Z,98159.81
2022-11-26T07:22:38.868Z,98162.50
2022-11-26T07:25:12.389Z,98174.13
2022-11-26T07:27:41.125Z,98176.81
2022-11-26T07:30:10.455Z,98184.88
2022-11-26T07:32:38.633Z,98182.19
2022-11-26T07:35:07.676Z,98174.97
2022-11-26T07:37:37.489Z,98189.28
2022-11-26T07:40:06.735Z,98184.78
2022-11-26T07:42:34.853Z,98189.28
2022-11-26T07:45:03.882Z,98189.19
2022-11-26T07:47:31.975Z,98198.22
2022-11-26T07:50:00.355Z,98199.94
2022-11-26T07:52:28.468Z,98199.94
2022-11-26T07:54:57.974Z,98195.53
2022-11-26T07:57:26.090Z,98200.91
2022-11-26T07:59:54.252Z,98205.31
2022-11-26T08:02:22.380Z,98199.00
2022-11-26T08:04:50.664Z,98192.66
2022-11-26T08:07:24.636Z,98196.22
2022-11-26T08:09:57.182Z,98200.66
2022-11-26T08:12:25.313Z,98212.25
2022-11-26T08:14:53.478Z,98201.50
2022-11-26T08:17:21.548Z,98205.94
2022-11-26T08:19:49.674Z,98204.19
2022-11-26T08:22:17.806Z,98211.31
2022-11-26T08:24:46.069Z,98209.56
2022-11-26T08:27:15.565Z,98207.75
2022-11-26T08:29:43.784Z,98221.09
2022-11-26T08:32:11.884Z,98225.56
2022-11-26T08:34:40.341Z,98221.91
2022-11-26T08:37:08.612Z,98224.53
2022-11-26T08:39:36.770Z,98217.41
2022-11-26T08:42:04.976Z,98224.59
2022-11-26T08:44:34.546Z,98229.97
2022-11-26T08:47:02.651Z,98226.34
2022-11-26T08:49:30.836Z,98235.28
2022-11-26T08:51:58.936Z,98234.41
2022-11-26T08:54:27.159Z,98231.72
2022-11-26T08:56:55.649Z,98235.28
2022-11-26T08:59:25.417Z,98239.69
2022-11-26T09:01:54.994Z,98235.19
2022-11-26T09:04:23.251Z,98245.94
2022-11-26T09:06:51.369Z,98237.88
2022-11-26T09:09:19.518Z,98243.34
2022-11-26T09:11:49.141Z,98240.56
2022-11-26T09:14:18.799Z,98239.59
2022-11-26T09:16:47.248Z,98243.16
2022-11-26T09:19:17.109Z,98237.78
2022-11-26T09:21:45.319Z,98244.13
2022-11-26T09:24:13.710Z,98239.59
2022-11-26T09:26:41.895Z,98235.09
2022-11-26T09:29:11.400Z,98233.38
2022-11-26T09:31:55.072Z,98231.53
2022-11-26T09:34:29.019Z,98241.34
2022-11-26T09:36:57.091Z,98233.28
2022-11-26T09:39:25.269Z,98229.72
2022-11-26T09:41:55.608Z,98235.97
2022-11-26T09:44:29.965Z,98235.09
2022-11-26T09:47:13.686Z,98235.09
2022-11-26T09:49:51.525Z,98228.00
2022-11-26T09:52:24.150Z,98231.53
2022-11-26T09:55:03.048Z,98227.91
2022-11-26T09:57:34.750Z,98226.16
2022-11-26T10:00:02.897Z,98228.78
2022-11-26T10:02:33.127Z,98227.91
2022-11-26T10:05:02.673Z,98226.09
2022-11-26T10:07:38.982Z,98228.06
2022-11-26T10:10:09.745Z,98226.44
2022-11-26T10:13:10.781Z,98227.28
2022-11-26T10:15:38.267Z,98221.06
2022-11-26T10:18:12.716Z,98220.19
2022-11-26T10:20:49.048Z,98228.25
2022-11-26T10:23:20.224Z,98215.69
2022-11-26T10:25:50.024Z,98219.22
2022-11-26T10:28:22.213Z,98213.00
2022-11-26T10:30:54.099Z,98210.31
2022-11-26T10:33:22.415Z,98213.84
2022-11-26T10:35:52.061Z,98217.50
2022-11-26T10:38:20.200Z,98220.19
2022-11-26T10:40:48.329Z,98216.53
2022-11-26T10:43:19.934Z,98218.38
2022-11-26T10:45:48.972Z,98221.06
2022-11-26T10:48:21.244Z,98213.00
2022-11-26T10:51:04.863Z,98209.44
2022-11-26T10:53:36.161Z,98205.84
2022-11-26T10:56:05.716Z,98210.31
2022-11-26T10:58:38.647Z,98212.13
2022-11-26T11:01:07.408Z,98210.31
2022-11-26T11:04:07.334Z,98208.47
2022-11-26T11:06:44.245Z,98215.69
2022-11-26T11:09:25.707Z,98212.13
2022-11-26T11:12:18.928Z,98215.69
2022-11-26T11:14:47.813Z,98213.94
2022-11-26T11:17:35.463Z,98207.66
2022-11-26T11:20:22.146Z,98202.28
2022-11-26T11:22:58.154Z,98204.97
2022-11-26T11:25:27.200Z,98206.81
2022-11-26T11:27:55.462Z,98205.94
2022-11-26T11:30:25.996Z,98204.97
2022-11-26T11:32:56.453Z,98200.56
2022-11-26T11:35:25.656Z,98203.25
2022-11-26T11:37:56.054Z,98204.97
2022-11-26T11:40:27.709Z,98205.84
2022-11-26T11:42:57.165Z,98205.06
2022-11-26T11:45:30.244Z,98203.25
2022-11-26T11:47:58.869Z,98204.97
2022-11-26T11:50:31.864Z,98210.34
2022-11-26T11:53:22.694Z,98208.63
2022-11-26T11:56:02.091Z,98206.88
2022-11-26T11:58:45.733Z,98205.16
2022-11-26T12:01:20.949Z,98199.78
2022-11-26T12:04:22.302Z,98206.03
2022-11-26T12:06:56.423Z,98206.03
2022-11-26T12:09:27.589Z,98205.16
2022-11-26T12:11:57.707Z,98205.16
2022-11-26T12:14:27.517Z,98196.13
2022-11-26T12:16:57.483Z,98190.16
2022-11-26T12:19:29.931Z,98195.75
2022-11-26T12:21:59.564Z,98199.22
2022-11-26T12:24:33.356Z,98211.66
2022-11-26T12:27:03.907Z,98203.59
2022-11-26T12:29:36.240Z,98202.72
2022-11-26T12:32:06.775Z,98201.81
2022-11-26T12:34:35.853Z,98200.03
2022-11-26T12:37:05.463Z,98201.00
2022-11-26T12:39:39.573Z,98200.09
2022-11-26T12:42:10.621Z,98201.00
2022-11-26T12:44:39.618Z,98205.47
2022-11-26T12:47:11.701Z,98204.50
2022-11-26T12:49:44.073Z,98209.97
2022-11-26T12:52:19.417Z,98205.47
2022-11-26T12:54:52.609Z,98201.03
2022-11-26T12:57:23.920Z,98205.47
2022-11-26T12:59:54.865Z,98201.00
2022-11-26T13:02:26.248Z,98209.97
2022-11-26T13:04:54.916Z,98207.28
2022-11-26T13:07:35.543Z,98210.84
2022-11-26T13:10:22.165Z,98212.66
2022-11-26T13:12:52.817Z,98209.97
2022-11-26T13:15:24.553Z,98201.03
2022-11-26T13:17:52.845Z,98209.97
2022-11-26T13:20:34.857Z,98214.47
2022-11-26T13:23:09.421Z,98212.66
2022-11-26T13:25:56.144Z,98211.78
2022-11-26T13:28:31.296Z,98216.22
2022-11-26T13:31:07.618Z,98212.66
2022-11-26T13:34:00.629Z,98221.69
2022-11-26T13:37:01.101Z,98216.31
2022-11-26T13:40:08.997Z,98217.16
2022-11-26T13:42:55.474Z,98219.84
2022-11-26T13:45:36.260Z,98217.16
2022-11-26T13:48:06.535Z,98223.50
2022-11-26T13:50:38.060Z,98221.75
2022-11-26T13:53:07.806Z,98224.38
2022-11-26T13:55:37.903Z,98227.13
2022-11-26T13:58:08.609Z,98236.06
2022-11-26T14:00:37.502Z,98235.19
2022-11-26T14:03:06.279Z,98244.22
2022-11-26T14:06:08.283Z,98237.03
2022-11-26T14:08:37.850Z,98235.19
2022-11-26T14:11:06.484Z,98233.47
2022-11-26T14:13:36.235Z,98235.19
2022-11-26T14:16:06.277Z,98244.13
2022-11-26T14:19:00.913Z,98243.19
2022-11-26T14:21:30.693Z,98239.94
2022-11-26T14:24:00.565Z,98240.44
2022-11-26T14:26:34.458Z,98245.91
2022-11-26T14:29:12.066Z,98245.81
2022-11-26T14:31:49.982Z,98253.78
2022-11-26T14:34:20.705Z,98263.53
2022-11-26T14:36:53.114Z,98267.09
2022-11-26T14:39:21.345Z,98265.31
2022-11-26T14:41:54.437Z,98273.38
2022-11-26T14:44:25.453Z,98272.53
2022-11-26T14:46:55.353Z,98267.16
2022-11-26T14:49:32.039Z,98272.47
2022-11-26T14:52:00.334Z,98281.44
2022-11-26T14:54:30.775Z,98277.91
2022-11-26T14:56:59.737Z,98281.44
2022-11-26T14:59:30.634Z,98279.63
2022-11-26T15:01:59.088Z,98279.81
2022-11-26T15:04:28.145Z,98286.13
2022-11-26T15:06:56.863Z,98288.88
2022-11-26T15:09:25.934Z,98290.69
2022-11-26T15:12:00.891Z,98286.28
2022-11-26T15:14:35.804Z,98286.19
2022-11-26T15:17:04.082Z,98293.38
2022-11-26T15:19:33.981Z,98290.69
2022-11-26T15:22:08.861Z,98288.97
2022-11-26T15:24:37.843Z,98293.47
2022-11-26T15:27:06.119Z,98295.19
2022-11-26T15:29:37.382Z,98290.78
2022-11-26T15:32:05.967Z,98293.47
2022-11-26T15:34:34.055Z,98295.19
2022-11-26T15:37:02.216Z,98289.03
2022-11-26T15:39:30.983Z,98294.41
2022-11-26T15:42:02.257Z,98297.97
2022-11-26T15:44:30.592Z,98294.41
2022-11-26T15:47:00.547Z,98306.03
2022-11-26T15:49:30.475Z,98302.44
2022-11-26T15:51:59.282Z,98307.81
2022-11-26T15:54:43.322Z,98310.50
2022-11-26T15:57:21.262Z,98310.50
2022-11-26T15:59:50.217Z,98318.56
2022-11-26T16:02:20.738Z,98314.06
2022-11-26T16:04:50.533Z,98306.97
2022-11-26T16:07:19.543Z,98314.16
2022-11-26T16:09:48.185Z,98310.59
2022-11-26T16:12:30.253Z,98319.63
2022-11-26T16:15:12.215Z,98317.78
2022-11-26T16:17:44.396Z,98321.41
2022-11-26T16:20:17.450Z,98324.03
2022-11-26T16:22:46.870Z,98326.72
2022-11-26T16:25:21.804Z,98332.09
2022-11-26T16:28:06.588Z,98334.84
2022-11-26T16:30:35.029Z,98345.59
2022-11-26T16:33:04.681Z,98340.22
2022-11-26T16:35:48.117Z,98341.09
2022-11-26T16:38:20.250Z,98340.13
2022-11-26T16:40:48.692Z,98349.16
2022-11-26T16:43:16.777Z,98340.22
2022-11-26T16:45:44.959Z,98340.22
2022-11-26T16:48:26.060Z,98340.22
2022-11-26T16:50:54.835Z,98343.78
2022-11-26T16:53:22.934Z,98334.84
2022-11-26T16:55:51.152Z,98341.09
2022-11-26T16:58:26.100Z,98334.84
2022-11-26T17:00:54.419Z,98346.47
2022-11-26T17:03:24.205Z,98337.63
2022-11-26T17:05:53.901Z,98347.41
2022-11-26T17:08:22.062Z,98348.28
2022-11-26T17:10:51.010Z,98344.72
2022-11-26T17:13:20.670Z,98349.22
2022-11-26T17:15:49.214Z,98345.69
2022-11-26T17:18:20.395Z,98352.78
2022-11-26T17:20:50.045Z,98356.34
2022-11-26T17:23:18.437Z,98358.16
2022-11-26T17:25:47.361Z,98355.47
2022-11-26T17:28:15.848Z,98354.59
2022-11-26T17:30:44.636Z,98350.97
2022-11-26T17:33:12.816Z,98354.59
2022-11-26T17:35:40.913Z,98357.28
2022-11-26T17:38:14.880Z,98359.03
2022-11-26T17:40:43.359Z,98351.75
2022-11-26T17:43:11.492Z,98363.22
2022-11-26T17:45:39.888Z,98366.88
2022-11-26T17:48:08.017Z,98365.19
2022-11-26T17:50:37.404Z,98374.19
2022-11-26T17:53:05.593Z,98373.34
2022-11-26T17:55:35.085Z,98379.56
2022-11-26T17:58:03.193Z,98373.34
2022-11-26T18:00:31.413Z,98373.16
2022-11-26T18:02:59.652Z,98375.78
2022-11-26T18:05:28.333Z,98367.88
2022-11-26T18:07:56.650Z,98363.44
2022-11-26T18:10:24.900Z,98368.69
2022-11-26T18:12:55.231Z,98371.19
2022-11-26T18:15:24.244Z,98367.59
2022-11-26T18:17:53.404Z,98376.44
2022-11-26T18:20:23.982Z,98365.59
2022-11-26T18:22:52.318Z,98373.59
2022-11-26T18:25:20.460Z,98378.84
2022-11-26T18:27:48.681Z,98380.59
2022-11-26T18:30:18.686Z,98389.44
2022-11-26T18:32:46.898Z,98384.94
2022-11-26T18:35:15.086Z,98389.31
2022-11-26T18:37:43.293Z,98381.16
2022-11-26T18:40:13.636Z,98386.53
2022-11-26T18:42:41.944Z,98390.00
2022-11-26T18:45:11.500Z,98389.09
2022-11-26T18:47:41.057Z,98380.94
2022-11-26T18:50:09.992Z,98387.09
2022-11-26T18:52:38.217Z,98387.03
2022-11-26T18:55:08.311Z,98390.59
2022-11-26T18:57:36.630Z,98396.84
2022-11-26T19:00:06.078Z,98406.72
2022-11-26T19:02:35.288Z,98404.03
2022-11-26T19:05:05.974Z,98408.53
2022-11-26T19:07:34.247Z,98402.28
2022-11-26T19:10:02.370Z,98404.97
2022-11-26T19:12:30.596Z,98413.91
2022-11-26T19:14:58.875Z,98406.72
2022-11-26T19:17:27.194Z,98402.22
2022-11-26T19:19:55.294Z,98407.59
2022-11-26T19:22:24.823Z,98421.88
2022-11-26T19:24:52.961Z,98413.81
2022-11-26T19:27:21.126Z,98411.94
2022-11-26T19:29:49.341Z,98406.56
2022-11-26T19:32:17.552Z,98413.69
2022-11-26T19:34:45.702Z,98422.69
2022-11-26T19:37:13.804Z,98413.69
2022-11-26T19:39:43.544Z,98420.88
2022-11-26T19:42:11.646Z,98422.63
2022-11-26T19:44:40.052Z,98434.22
2022-11-26T19:47:08.133Z,98432.41
2022-11-26T19:49:36.740Z,98430.59
2022-11-26T19:52:05.129Z,98427.91
2022-11-26T19:54:33.433Z,98429.66
2022-11-26T19:57:02.937Z,98420.72
2022-11-26T19:59:31.146Z,98421.56
2022-11-26T20:01:59.410Z,98431.41
2022-11-26T20:04:29.720Z,98443.88
2022-11-26T20:06:58.674Z,98443.97
2022-11-26T20:09:26.769Z,98444.75
2022-11-26T20:11:54.916Z,98448.31
2022-11-26T20:14:24.387Z,98445.63
2022-11-26T20:16:55.150Z,98455.44
2022-11-26T20:19:27.499Z,98453.63
2022-11-26T20:21:55.629Z,98447.34
2022-11-26T20:24:23.725Z,98444.63
2022-11-26T20:26:51.908Z,98456.22
2022-11-26T20:29:20.130Z,98452.59
2022-11-26T20:31:50.867Z,98455.28
2022-11-26T20:34:19.814Z,98445.41
2022-11-26T20:36:48.040Z,98447.06
2022-11-26T20:39:17.461Z,98454.19
2022-11-26T20:41:45.674Z,98458.56
2022-11-26T20:44:14.241Z,98452.22
2022-11-26T20:46:42.450Z,98453.00
2022-11-26T20:49:12.306Z,98456.56
2022-11-26T20:51:40.551Z,98453.88
2022-11-26T20:54:08.666Z,98454.78
2022-11-26T20:56:36.863Z,98445.81
2022-11-26T20:59:04.980Z,98454.69
2022-11-26T21:01:33.413Z,98457.38
2022-11-26T21:04:01.540Z,98454.69
2022-11-26T21:06:31.604Z,98462.75
2022-11-26T21:09:00.729Z,98453.81
2022-11-26T21:11:28.919Z,98456.50
2022-11-26T21:13:58.092Z,98460.19
2022-11-26T21:16:26.302Z,98468.22
2022-11-26T21:18:55.023Z,98473.50
2022-11-26T21:21:23.237Z,98465.44
2022-11-26T21:23:52.793Z,98457.38
2022-11-26T21:26:22.336Z,98466.31
2022-11-26T21:28:51.642Z,98456.50
2022-11-26T21:31:19.928Z,98463.63
2022-11-26T21:33:48.247Z,98461.88
2022-11-26T21:36:17.148Z,98462.66
2022-11-26T21:38:48.381Z,98466.25
2022-11-26T21:41:19.903Z,98461.78
2022-11-26T21:43:48.401Z,98457.28
2022-11-26T21:46:17.225Z,98459.97
2022-11-26T21:48:45.551Z,98467.97
2022-11-26T21:51:15.441Z,98456.34
2022-11-26T21:53:43.676Z,98452.72
2022-11-26T21:56:13.773Z,98444.72
2022-11-26T21:58:43.397Z,98450.09
2022-11-26T22:01:12.497Z,98451.81
2022-11-26T22:03:40.955Z,98445.53
2022-11-26T22:06:09.277Z,98450.03
2022-11-26T22:08:37.460Z,98448.22
2022-11-26T22:11:09.803Z,98447.31
2022-11-26T22:13:37.974Z,98439.25
2022-11-26T22:16:08.338Z,98450.91
2022-11-26T22:18:37.301Z,98438.34
2022-11-26T22:21:05.609Z,98434.75
2022-11-26T22:23:33.801Z,98440.13
2022-11-26T22:26:01.909Z,98440.13
2022-11-26T22:28:30.430Z,98439.19
2022-11-26T22:30:58.709Z,98440.13
2022-11-26T22:33:28.353Z,98452.63
2022-11-26T22:35:56.430Z,98452.72
2022-11-26T22:38:25.214Z,98450.91
2022-11-26T22:40:53.320Z,98451.78
2022-11-26T22:43:21.546Z,98447.31
2022-11-26T22:45:49.731Z,98445.53
2022-11-26T22:48:17.916Z,98450.91
2022-11-26T22:50:52.401Z,98457.22
2022-11-26T22:53:20.630Z,98446.44
2022-11-26T22:55:52.378Z,98441.06
2022-11-26T22:58:20.637Z,98435.69
2022-11-26T23:00:49.932Z,98436.66
2022-11-26T23:03:18.219Z,98435.78
2022-11-26T23:05:46.563Z,98427.72
2022-11-26T23:08:16.100Z,98431.38
2022-11-26T23:10:44.364Z,98434.06
2022-11-26T23:13:13.401Z,98429.53
2022-11-26T23:15:44.656Z,98440.28
2022-11-26T23:18:13.693Z,98430.50
2022-11-26T23:20:41.820Z,98439.44
2022-11-26T23:23:09.928Z,98434.91
2022-11-26T23:25:40.600Z,98432.22
2022-11-26T23:28:08.744Z,98433.19
2022-11-26T23:30:36.821Z,98433.19
2022-11-26T23:33:05.059Z,98432.28
2022-11-26T23:35:33.200Z,98435.88
2022-11-26T23:38:01.332Z,98436.78
2022-11-26T23:40:29.504Z,98443.13
2022-11-26T23:42:58.982Z,98447.56
2022-11-26T23:45:27.146Z,98441.31
2022-11-26T23:47:55.289Z,98435.06
2022-11-26T23:50:23.473Z,98431.50
2022-11-26T23:52:51.555Z,98434.19
2022-11-26T23:55:19.731Z,98436.88
2022-11-26T23:57:47.797Z,98432.53
